Time;durP1;ratioP1;P1;durP2;ratioP2;P2;SDS_P1;SDS_P2;PMS_P1;PMS_P2;Temp;Humidity;BMP_temperature;BMP_pressure;BME280_temperature;BME280_humidity;BME280_pressure;Samples;Min_cycle;Max_cycle;Signal;HPM_P1;HPM_P2
2021/09/10 00:00:52;;;;;;;8.70;7.82;;;;;;;20.27;64.20;98671.66;2620354;54;20030;-70
2021/09/10 00:03:22;;;;;;;9.60;7.60;;;;;;;20.24;63.88;98674.84;2621403;54;20030;-71
2021/09/10 00:05:52;;;;;;;8.93;8.02;;;;;;;20.19;64.55;98678.31;2622884;54;20026;-71
2021/09/10 00:08:24;;;;;;;8.68;7.25;;;;;;;20.11;64.41;98678.81;2622266;54;20046;-71
2021/09/10 00:10:54;;;;;;;8.45;7.55;;;;;;;20.10;64.95;98679.88;2623271;54;20042;-71
2021/09/10 00:13:24;;;;;;;8.80;7.88;;;;;;;20.15;65.02;98679.09;2622992;54;20026;-70
2021/09/10 00:15:54;;;;;;;8.80;7.55;;;;;;;20.15;64.39;98674.53;2622442;54;20038;-70
2021/09/10 00:18:26;;;;;;;8.15;7.35;;;;;;;20.18;64.16;98682.06;2623384;54;20034;-70
2021/09/10 00:20:56;;;;;;;8.70;7.80;;;;;;;20.18;63.85;98673.22;2623476;39;20414;-71
2021/09/10 00:23:28;;;;;;;8.57;7.68;;;;;;;20.20;64.17;98679.94;2622587;54;20022;-71
2021/09/10 00:25:59;;;;;;;10.82;7.70;;;;;;;20.22;63.89;98682.38;2622803;54;20073;-71
2021/09/10 00:28:29;;;;;;;11.52;7.35;;;;;;;20.24;63.39;98688.28;2624976;39;20456;-72
2021/09/10 00:30:58;;;;;;;8.57;6.90;;;;;;;20.23;63.63;98673.25;2622785;54;20115;-71
2021/09/10 00:33:28;;;;;;;7.63;6.70;;;;;;;20.23;63.41;98687.47;2623176;47;20027;-71
2021/09/10 00:35:58;;;;;;;7.95;7.13;;;;;;;20.22;63.48;98687.75;2622832;54;20034;-71
2021/09/10 00:38:31;;;;;;;8.35;6.53;;;;;;;20.22;63.37;98674.31;2623509;54;20034;-70
2021/09/10 00:41:01;;;;;;;20.20;7.63;;;;;;;20.22;63.44;98680.50;2623404;54;20038;-70
2021/09/10 00:43:31;;;;;;;11.10;7.90;;;;;;;20.21;63.21;98686.94;2623787;54;20030;-70
2021/09/10 00:46:02;;;;;;;9.68;7.20;;;;;;;20.20;63.53;98681.81;2623859;54;20034;-70
2021/09/10 00:48:32;;;;;;;13.25;7.57;;;;;;;20.22;63.09;98685.06;2623280;54;20081;-70
2021/09/10 00:51:02;;;;;;;8.23;7.40;;;;;;;20.20;63.23;98687.97;2623265;39;20453;-70
2021/09/10 00:53:34;;;;;;;8.30;7.50;;;;;;;20.21;63.50;98689.63;2623169;54;20575;-70
2021/09/10 00:56:04;;;;;;;8.20;7.07;;;;;;;20.18;63.50;98690.13;2623081;54;20145;-70
2021/09/10 00:58:34;;;;;;;7.43;6.72;;;;;;;20.18;63.65;98694.69;2622550;54;20034;-70
2021/09/10 01:01:03;;;;;;;7.90;6.63;;;;;;;20.21;63.69;98688.81;2623144;54;20046;-70
2021/09/10 01:03:35;;;;;;;7.38;6.68;;;;;;;20.21;63.48;98700.34;2623453;54;20085;-70
2021/09/10 01:06:07;;;;;;;9.20;7.00;;;;;;;20.17;63.27;98690.41;2623577;46;20027;-70
2021/09/10 01:08:41;;;;;;;8.13;6.90;;;;;;;20.17;63.75;98693.88;2622934;51;20027;-70
2021/09/10 01:11:26;;;;;;;7.30;6.60;;;;;;;20.15;63.79;98697.88;2623843;54;20662;-70
2021/09/10 01:14:10;;;;;;;8.40;7.10;;;;;;;20.19;63.81;98694.41;2623709;54;20126;-70
2021/09/10 01:16:41;;;;;;;6.95;6.35;;;;;;;20.23;63.37;98695.53;2623233;54;20042;-70
2021/09/10 01:19:11;;;;;;;7.70;6.40;;;;;;;20.26;63.02;98702.25;2623560;54;20030;-70
2021/09/10 01:21:41;;;;;;;10.13;6.93;;;;;;;20.26;63.48;98694.22;2623662;54;20026;-71
2021/09/10 01:24:14;;;;;;;8.25;6.45;;;;;;;20.25;63.17;98700.66;2623066;54;20518;-70
2021/09/10 01:26:46;;;;;;;6.95;6.35;;;;;;;20.23;63.57;98692.03;2623231;47;20053;-70
2021/09/10 01:29:15;;;;;;;8.30;6.60;;;;;;;20.21;63.30;98695.00;2622758;47;20046;-70
2021/09/10 01:31:45;;;;;;;8.15;6.07;;;;;;;20.20;63.29;98692.53;2623627;54;20038;-70
2021/09/10 01:34:15;;;;;;;9.90;6.50;;;;;;;20.19;63.17;98694.41;2623029;54;20058;-70
2021/09/10 01:36:44;;;;;;;9.18;6.90;;;;;;;20.14;63.32;98693.59;2623493;39;20753;-70
2021/09/10 01:39:14;;;;;;;6.95;6.20;;;;;;;20.12;63.20;98695.69;2623164;54;20037;-70
2021/09/10 01:41:46;;;;;;;8.45;6.63;;;;;;;20.13;63.24;98698.16;2623137;54;20038;-70
2021/09/10 01:44:16;;;;;;;7.78;6.22;;;;;;;20.15;63.13;98697.88;2622977;54;20533;-69
2021/09/10 01:46:46;;;;;;;8.77;6.45;;;;;;;20.12;63.13;98691.16;2623432;31;20474;-69
2021/09/10 01:49:16;;;;;;;7.95;6.85;;;;;;;20.14;63.59;98696.28;2621876;54;20041;-70
2021/09/10 01:51:46;;;;;;;7.78;6.35;;;;;;;20.15;63.10;98687.94;2622251;54;20133;-70
2021/09/10 01:54:15;;;;;;;7.63;6.57;;;;;;;20.15;63.43;98695.19;2623167;54;20581;-70
2021/09/10 01:56:48;;;;;;;6.63;6.03;;;;;;;20.10;63.15;98698.66;2622885;54;20046;-70
2021/09/10 01:59:18;;;;;;;6.47;5.80;;;;;;;20.10;63.50;98698.66;2622297;54;20089;-69
2021/09/10 02:01:47;;;;;;;7.50;6.68;;;;;;;20.08;63.44;98690.03;2622997;39;20434;-70
2021/09/10 02:04:19;;;;;;;7.07;6.35;;;;;;;20.10;63.44;98687.91;2623046;54;20131;-70
2021/09/10 02:06:48;;;;;;;9.80;6.57;;;;;;;20.13;63.39;98683.94;2622399;54;20130;-70
2021/09/10 02:09:19;;;;;;;7.00;6.20;;;;;;;20.08;63.31;98690.03;2622692;54;20045;-70
2021/09/10 02:11:51;;;;;;;8.73;7.80;;;;;;;20.08;63.88;98686.56;2623036;54;20026;-70
2021/09/10 02:14:21;;;;;;;6.70;6.00;;;;;;;20.09;63.66;98682.81;2621909;54;20117;-69
2021/09/10 02:16:50;;;;;;;6.40;5.80;;;;;;;20.11;63.28;98692.22;2621286;54;20094;-69
2021/09/10 02:19:20;;;;;;;6.55;5.95;;;;;;;20.12;63.43;98688.47;2621605;54;20022;-69
2021/09/10 02:21:49;;;;;;;7.32;6.38;;;;;;;20.12;63.51;98691.16;2621337;54;20533;-69
2021/09/10 02:24:19;;;;;;;6.75;6.05;;;;;;;20.12;63.28;98687.66;2621715;54;20022;-69
2021/09/10 02:26:51;;;;;;;7.68;6.90;;;;;;;20.15;63.53;98692.50;2621926;54;20030;-69
2021/09/10 02:29:21;;;;;;;8.07;6.75;;;;;;;20.17;63.65;98695.75;2621718;54;20022;-69
2021/09/10 02:31:51;;;;;;;8.30;7.00;;;;;;;20.19;63.36;98693.63;2621740;54;20554;-70
2021/09/10 02:34:21;;;;;;;7.70;6.30;;;;;;;20.21;63.54;98688.81;2620845;54;20090;-70
2021/09/10 02:36:51;;;;;;;6.80;6.20;;;;;;;20.22;63.17;98690.44;2621196;54;20046;-70
2021/09/10 02:39:20;;;;;;;6.55;5.95;;;;;;;20.19;63.47;98697.09;2620363;54;20110;-70
2021/09/10 02:41:53;;;;;;;10.15;6.40;;;;;;;20.21;63.35;98702.22;2622167;54;20033;-71
2021/09/10 02:44:23;;;;;;;7.90;6.68;;;;;;;20.18;63.20;98694.69;2622378;47;20092;-71
2021/09/10 02:46:53;;;;;;;7.43;5.75;;;;;;;20.16;63.52;98700.28;2621654;54;20027;-71
2021/09/10 02:49:24;;;;;;;7.22;6.10;;;;;;;20.11;63.24;98697.59;2620675;54;20026;-71
2021/09/10 02:51:53;;;;;;;8.30;7.03;;;;;;;20.06;63.47;98689.50;2621054;39;20496;-70
2021/09/10 02:54:23;;;;;;;8.63;6.53;;;;;;;20.03;63.62;98690.81;2620949;54;20089;-71
2021/09/10 02:56:56;;;;;;;8.90;6.43;;;;;;;20.05;63.79;98687.91;2622683;54;20027;-71
2021/09/10 02:59:27;;;;;;;6.05;5.55;;;;;;;20.00;63.58;98688.66;2620844;47;20034;-70
2021/09/10 03:01:58;;;;;;;6.80;6.20;;;;;;;19.99;63.42;98687.03;2621474;54;20550;-70
2021/09/10 03:04:29;;;;;;;7.35;6.68;;;;;;;20.00;64.01;98685.16;2622530;39;20395;-69
2021/09/10 03:06:59;;;;;;;6.78;6.15;;;;;;;19.98;63.78;98685.41;2620963;54;20525;-70
2021/09/10 03:09:28;;;;;;;7.53;6.07;;;;;;;19.96;63.77;98679.50;2620097;47;20030;-69
2021/09/10 03:12:01;;;;;;;7.45;6.45;;;;;;;19.93;63.79;98680.03;2619197;47;20034;-70
2021/09/10 03:14:32;;;;;;;8.50;6.70;;;;;;;19.92;63.64;98682.94;2619709;54;20030;-69
2021/09/10 03:17:02;;;;;;;8.27;6.28;;;;;;;19.88;64.18;98671.94;2622219;39;20430;-69
2021/09/10 03:19:32;;;;;;;6.88;6.22;;;;;;;19.88;64.24;98671.09;2621733;51;20182;-70
2021/09/10 03:22:02;;;;;;;10.68;6.80;;;;;;;19.86;64.04;98671.38;2622532;54;20034;-70
2021/09/10 03:24:32;;;;;;;9.27;7.18;;;;;;;19.84;63.93;98664.63;2622199;54;20030;-69
2021/09/10 03:27:04;;;;;;;8.50;7.20;;;;;;;19.80;64.03;98664.38;2623058;54;20026;-69
2021/09/10 03:29:34;;;;;;;7.73;6.93;;;;;;;19.79;64.19;98657.34;2621998;54;20034;-69
2021/09/10 03:32:04;;;;;;;7.53;6.60;;;;;;;19.70;64.75;98658.91;2622001;54;20022;-69
2021/09/10 03:34:34;;;;;;;7.43;5.88;;;;;;;19.72;64.35;98662.16;2620093;54;20022;-70
2021/09/10 03:37:04;;;;;;;6.60;6.00;;;;;;;19.74;64.35;98654.63;2621603;54;20029;-70
2021/09/10 03:39:34;;;;;;;8.32;6.38;;;;;;;19.74;64.57;98657.31;2620785;54;20034;-69
2021/09/10 03:42:06;;;;;;;8.38;6.50;;;;;;;19.74;64.68;98654.63;2623142;54;20027;-69
2021/09/10 03:44:36;;;;;;;11.75;6.40;;;;;;;19.72;64.23;98654.09;2623844;54;20031;-69
2021/09/10 03:47:07;;;;;;;7.32;6.30;;;;;;;19.72;64.43;98652.22;2623236;54;20022;-69
2021/09/10 03:49:37;;;;;;;9.13;7.00;;;;;;;19.70;64.29;98659.69;2621182;54;20030;-69
2021/09/10 03:52:08;;;;;;;7.05;6.45;;;;;;;19.66;64.86;98666.63;2623831;54;20038;-70
2021/09/10 03:54:38;;;;;;;7.88;6.53;;;;;;;19.67;64.68;98665.56;2624660;39;20375;-71
2021/09/10 03:57:10;;;;;;;7.05;6.40;;;;;;;19.68;64.90;98663.72;2623798;54;20042;-70
2021/09/10 03:59:40;;;;;;;7.30;6.60;;;;;;;19.70;64.87;98665.06;2621398;54;20042;-70
2021/09/10 04:02:12;;;;;;;7.83;6.67;;;;;;;19.70;65.21;98654.34;2621951;54;20066;-70
2021/09/10 04:04:43;;;;;;;6.65;5.95;;;;;;;19.68;65.04;98658.34;2620867;54;20035;-70
2021/09/10 04:07:14;;;;;;;7.50;6.78;;;;;;;19.63;65.49;98660.97;2621202;54;20034;-70
2021/09/10 04:09:44;;;;;;;7.38;6.68;;;;;;;19.65;65.67;98664.22;2621940;54;20037;-70
2021/09/10 04:12:19;;;;;;;7.45;6.72;;;;;;;19.65;65.34;98662.34;2623390;54;20019;-70
2021/09/10 04:14:55;;;;;;;8.65;6.40;;;;;;;19.62;65.56;98657.47;2622918;54;20070;-70
2021/09/10 04:17:25;;;;;;;7.40;6.65;;;;;;;19.59;65.42;98660.63;2623383;54;20034;-70
2021/09/10 04:19:54;;;;;;;7.72;6.65;;;;;;;19.56;65.64;98653.13;2622774;52;20045;-71
2021/09/10 04:22:24;;;;;;;8.63;6.38;;;;;;;19.53;65.71;98657.13;2622840;54;20034;-70
2021/09/10 04:24:54;;;;;;;7.47;6.22;;;;;;;19.49;65.64;98661.38;2622981;54;20816;-71
2021/09/10 04:27:26;;;;;;;7.10;6.38;;;;;;;19.47;65.37;98646.59;2622838;54;20033;-70
2021/09/10 04:29:57;;;;;;;7.38;6.47;;;;;;;19.47;65.39;98646.59;2622130;47;20034;-71
2021/09/10 04:32:26;;;;;;;7.68;6.95;;;;;;;19.47;65.95;98651.94;2622691;54;20039;-70
2021/09/10 04:34:56;;;;;;;8.55;6.07;;;;;;;19.45;66.01;98654.09;2623203;54;20034;-71
2021/09/10 04:37:26;;;;;;;7.63;6.82;;;;;;;19.45;65.75;98654.09;2622594;54;20030;-69
2021/09/10 04:39:56;;;;;;;7.68;6.97;;;;;;;19.47;66.01;98660.00;2622073;54;20034;-69
2021/09/10 04:42:28;;;;;;;8.88;6.57;;;;;;;19.48;65.93;98659.75;2623099;54;20554;-69
2021/09/10 04:44:58;;;;;;;7.05;6.40;;;;;;;19.48;65.79;98662.44;2622623;54;20022;-69
2021/09/10 04:47:27;;;;;;;6.80;6.20;;;;;;;19.50;65.36;98659.50;2620747;54;20038;-69
2021/09/10 04:49:57;;;;;;;9.68;7.15;;;;;;;19.50;65.75;98665.66;2621148;54;20034;-69
2021/09/10 04:52:27;;;;;;;8.07;6.40;;;;;;;19.50;65.55;98660.28;2620154;54;20042;-71
2021/09/10 04:54:57;;;;;;;7.07;6.47;;;;;;;19.50;65.68;98662.97;2620870;54;20037;-69
2021/09/10 04:57:29;;;;;;;7.03;6.32;;;;;;;19.53;65.51;98661.66;2620673;54;20035;-68
2021/09/10 04:59:58;;;;;;;8.30;6.15;;;;;;;19.53;66.08;98667.03;2620222;54;20018;-68
2021/09/10 05:02:28;;;;;;;11.30;6.90;;;;;;;19.51;66.12;98663.78;2621097;54;20040;-69
2021/09/10 05:08:07;;;;;;;9.95;7.70;;;;;;;19.50;66.00;98667.53;2619965;47;20557;-69
2021/09/10 05:10:36;;;;;;;8.73;7.80;;;;;;;19.52;65.90;98670.78;2620222;54;20027;-69
2021/09/10 05:13:09;;;;;;;7.78;6.95;;;;;;;19.51;66.02;98672.66;2620690;39;20450;-69
2021/09/10 05:15:38;;;;;;;7.47;6.72;;;;;;;19.49;66.11;98671.28;2620374;54;20038;-70
2021/09/10 05:18:08;;;;;;;7.60;6.90;;;;;;;19.53;65.73;98673.19;2620261;54;20117;-69
2021/09/10 05:20:40;;;;;;;7.40;6.68;;;;;;;19.59;65.62;98675.91;2620415;51;20045;-69
2021/09/10 05:23:09;;;;;;;8.90;7.63;;;;;;;19.60;65.58;98678.38;2620863;54;20034;-69
2021/09/10 05:25:39;;;;;;;9.75;8.18;;;;;;;19.62;66.18;98676.25;2620127;54;20030;-70
2021/09/10 05:28:11;;;;;;;10.25;8.40;;;;;;;19.61;65.58;98682.69;2620297;54;20034;-70
2021/09/10 05:30:41;;;;;;;9.68;7.85;;;;;;;19.59;66.32;98683.97;2621612;54;20081;-69
2021/09/10 05:33:10;;;;;;;10.80;9.70;;;;;;;19.63;66.28;98687.78;2622284;39;20453;-68
2021/09/10 05:35:40;;;;;;;10.35;7.40;;;;;;;19.64;65.85;98684.88;2621967;54;20026;-68
2021/09/10 05:38:09;;;;;;;9.68;7.50;;;;;;;19.66;65.45;98680.03;2621997;54;20030;-69
2021/09/10 05:40:39;;;;;;;10.38;8.60;;;;;;;19.71;65.11;98684.63;2621572;54;20564;-68
2021/09/10 05:43:11;;;;;;;7.88;7.07;;;;;;;19.78;64.97;98687.94;2621882;47;20041;-69
2021/09/10 05:45:42;;;;;;;7.95;6.82;;;;;;;19.81;64.86;98684.75;2622525;54;20034;-69
2021/09/10 05:48:12;;;;;;;7.78;6.78;;;;;;;19.83;65.27;98693.34;2622080;54;20117;-69
2021/09/10 05:50:41;;;;;;;11.07;7.82;;;;;;;19.83;65.66;98689.84;2622609;54;20026;-69
2021/09/10 05:53:11;;;;;;;8.02;6.68;;;;;;;19.83;65.36;98687.16;2622459;54;20141;-68
2021/09/10 05:55:41;;;;;;;8.45;7.10;;;;;;;19.92;65.02;98694.50;2621924;54;20035;-68
2021/09/10 05:58:13;;;;;;;10.00;8.98;;;;;;;19.98;64.99;98682.72;2621588;54;20030;-69
2021/09/10 06:00:43;;;;;;;8.32;6.90;;;;;;;20.03;64.71;98692.69;2622205;54;20579;-70
2021/09/10 06:03:13;;;;;;;7.28;6.55;;;;;;;20.09;64.14;98693.56;2621767;54;20037;-69
2021/09/10 06:05:43;;;;;;;7.45;6.72;;;;;;;20.15;63.60;98695.19;2620214;54;20030;-69
2021/09/10 06:08:13;;;;;;;10.07;6.93;;;;;;;20.21;63.52;98696.88;2620099;47;20030;-69
2021/09/10 06:10:45;;;;;;;7.78;7.07;;;;;;;20.23;63.78;98694.72;2620673;54;20069;-70
2021/09/10 06:13:21;;;;;;;7.63;6.93;;;;;;;20.24;63.35;98694.44;2619925;54;20077;-70
2021/09/10 06:15:51;;;;;;;7.72;6.93;;;;;;;20.29;63.11;98699.88;2620136;47;20061;-69
2021/09/10 06:18:21;;;;;;;11.18;7.50;;;;;;;20.37;63.12;98703.13;2620367;54;20030;-68
2021/09/10 06:20:51;;;;;;;8.32;7.50;;;;;;;20.38;62.90;98704.75;2620240;47;20037;-68
2021/09/10 06:23:20;;;;;;;7.18;6.45;;;;;;;20.39;62.55;98701.00;2621344;54;20038;-69
2021/09/10 06:25:50;;;;;;;8.23;6.80;;;;;;;20.37;62.35;98709.31;2620867;54;20034;-69
2021/09/10 06:28:22;;;;;;;7.88;6.65;;;;;;;20.33;62.47;98708.22;2621240;47;20045;-68
2021/09/10 06:30:52;;;;;;;8.02;7.13;;;;;;;20.29;62.66;98710.63;2622019;54;20042;-68
2021/09/10 06:33:22;;;;;;;8.75;7.40;;;;;;;20.27;62.35;98703.88;2621576;54;20023;-68
2021/09/10 06:35:52;;;;;;;8.07;6.40;;;;;;;20.30;62.69;98708.72;2620927;47;20038;-70
2021/09/10 06:38:21;;;;;;;10.48;9.43;;;;;;;20.33;62.79;98708.22;2620860;47;20034;-68
2021/09/10 06:40:51;;;;;;;8.20;7.35;;;;;;;20.36;62.62;98705.00;2621485;54;20038;-68
2021/09/10 06:43:23;;;;;;;8.35;7.47;;;;;;;20.40;62.50;98708.78;2621775;54;20034;-68
2021/09/10 06:45:53;;;;;;;7.13;6.53;;;;;;;20.40;62.27;98706.09;2621042;47;20550;-68
2021/09/10 06:48:22;;;;;;;7.97;7.15;;;;;;;20.37;61.82;98706.63;2620969;47;20078;-68
2021/09/10 06:50:52;;;;;;;7.57;6.80;;;;;;;20.43;62.16;98708.28;2621455;54;20037;-68
2021/09/10 06:53:22;;;;;;;8.13;6.20;;;;;;;20.45;61.73;98706.16;2621539;54;20027;-68
2021/09/10 06:55:51;;;;;;;7.38;6.68;;;;;;;20.48;61.64;98711.03;2621938;54;20039;-68
2021/09/10 06:58:23;;;;;;;7.35;6.65;;;;;;;20.56;61.91;98711.59;2620939;47;20042;-69
2021/09/10 07:00:53;;;;;;;8.63;6.65;;;;;;;20.63;61.41;98715.69;2622825;39;20429;-69
2021/09/10 07:03:23;;;;;;;7.07;6.47;;;;;;;20.69;61.62;98722.69;2621141;54;20061;-69
2021/09/10 07:05:53;;;;;;;7.72;6.93;;;;;;;20.65;61.57;98718.09;2620669;47;20033;-68
2021/09/10 07:08:23;;;;;;;8.13;6.30;;;;;;;20.63;61.44;98733.69;2620579;54;20031;-69
2021/09/10 07:10:52;;;;;;;8.52;7.53;;;;;;;20.59;61.28;98738.75;2620672;53;20152;-69
2021/09/10 07:13:28;;;;;;;8.10;7.28;;;;;;;20.57;61.43;98746.25;2621358;54;20080;-69
2021/09/10 07:15:58;;;;;;;7.82;7.03;;;;;;;20.48;61.97;98745.94;2621339;54;20077;-70
2021/09/10 07:18:28;;;;;;;6.85;6.03;;;;;;;20.49;61.75;98746.72;2621749;54;20036;-70
2021/09/10 07:20:59;;;;;;;7.05;6.22;;;;;;;20.48;62.21;98759.34;2621452;54;20031;-69
2021/09/10 07:23:30;;;;;;;7.35;6.63;;;;;;;20.48;61.90;98751.28;2621914;54;20057;-69
2021/09/10 07:26:03;;;;;;;6.68;6.07;;;;;;;20.49;62.59;98752.09;2621744;54;20125;-69
2021/09/10 07:28:36;;;;;;;6.38;5.78;;;;;;;20.51;62.71;98752.66;2620774;54;20030;-69
2021/09/10 07:31:07;;;;;;;8.25;6.80;;;;;;;20.42;63.02;98762.25;2620178;47;20031;-68
2021/09/10 07:33:41;;;;;;;6.55;5.30;;;;;;;20.39;63.80;98760.06;2618540;47;20058;-69
2021/09/10 07:36:12;;;;;;;6.47;5.88;;;;;;;20.30;63.82;98770.47;2621723;54;20110;-68
2021/09/10 07:38:42;;;;;;;6.70;5.97;;;;;;;20.28;64.35;98776.06;2621754;54;20090;-68
2021/09/10 07:41:11;;;;;;;7.32;6.32;;;;;;;20.25;64.59;98771.25;2621371;47;20041;-68
2021/09/10 07:43:44;;;;;;;6.50;5.88;;;;;;;20.19;64.94;98771.44;2621466;47;20026;-68
2021/09/10 07:46:14;;;;;;;7.32;6.63;;;;;;;20.13;66.25;98772.50;2621659;54;20034;-68
2021/09/10 07:48:44;;;;;;;8.25;7.50;;;;;;;20.06;66.36;98772.69;2621232;47;20066;-69
2021/09/10 07:51:14;;;;;;;8.23;5.60;;;;;;;20.03;66.68;98782.03;2621369;54;20030;-69
2021/09/10 07:53:43;;;;;;;6.70;6.10;;;;;;;20.07;67.60;98786.91;2621655;54;20570;-69
2021/09/10 07:56:13;;;;;;;7.57;6.85;;;;;;;20.09;68.05;98785.59;2620912;54;20038;-69
2021/09/10 07:58:45;;;;;;;7.78;7.07;;;;;;;20.13;68.19;98783.22;2618399;54;20045;-69
2021/09/10 08:01:15;;;;;;;6.30;5.80;;;;;;;20.08;68.52;98799.25;2619297;54;20038;-69
2021/09/10 08:03:45;;;;;;;6.72;6.03;;;;;;;20.14;68.30;98799.06;2621690;54;20045;-69
2021/09/10 08:06:15;;;;;;;8.32;6.82;;;;;;;20.21;68.03;98799.66;2620842;47;20038;-69
2021/09/10 08:08:45;;;;;;;7.00;6.32;;;;;;;20.27;67.93;98787.88;2621015;47;20034;-70
2021/09/10 08:11:15;;;;;;;9.60;7.13;;;;;;;20.31;68.25;98793.56;2621359;47;20026;-70
2021/09/10 08:13:47;;;;;;;10.80;9.65;;;;;;;20.25;68.59;98797.28;2621244;47;20091;-70
2021/09/10 08:16:17;;;;;;;13.75;12.38;;;;;;;20.28;68.96;98789.50;2621750;54;20031;-70
2021/09/10 08:18:46;;;;;;;8.73;7.13;;;;;;;20.38;68.62;98794.16;2621344;54;20055;-70
2021/09/10 08:21:37;;;;;;;9.85;8.93;;;;;;;20.42;68.86;98789.91;2621354;54;20641;-70
2021/09/10 08:24:09;;;;;;;7.78;7.07;;;;;;;20.46;68.64;98796.38;2622375;54;20026;-70
2021/09/10 08:26:39;;;;;;;10.80;9.70;;;;;;;20.50;68.00;98805.56;2621068;47;20045;-70
2021/09/10 08:29:11;;;;;;;8.35;7.55;;;;;;;20.57;68.55;98799.16;2621252;54;20038;-70
2021/09/10 08:31:41;;;;;;;9.07;7.45;;;;;;;20.60;68.24;98814.75;2622195;47;20027;-70
2021/09/10 08:34:13;;;;;;;8.52;7.55;;;;;;;20.62;68.20;98808.06;2622036;54;20110;-70
2021/09/10 08:36:43;;;;;;;9.13;7.57;;;;;;;20.66;67.66;98819.91;2622177;54;20053;-70
2021/09/10 08:39:13;;;;;;;9.55;7.97;;;;;;;20.74;67.96;98816.75;2621906;47;20027;-70
2021/09/10 08:41:45;;;;;;;7.70;6.97;;;;;;;20.80;67.67;98814.91;2622487;54;20038;-69
2021/09/10 08:44:19;;;;;;;9.20;8.02;;;;;;;20.74;68.21;98811.38;2622033;47;20027;-70
2021/09/10 08:46:49;;;;;;;10.20;7.22;;;;;;;20.78;67.56;98819.75;2622537;47;20045;-69
2021/09/10 08:49:19;;;;;;;9.82;8.45;;;;;;;20.78;68.12;98814.38;2622163;54;20038;-70
2021/09/10 08:51:48;;;;;;;8.75;7.93;;;;;;;20.77;68.19;98820.78;2622388;54;20038;-69
2021/09/10 08:54:18;;;;;;;11.85;7.90;;;;;;;20.79;68.16;98815.97;2622223;54;20026;-69
2021/09/10 08:56:48;;;;;;;14.00;8.38;;;;;;;20.87;68.00;98820.06;2623335;39;20399;-70
2021/09/10 08:59:22;;;;;;;10.75;8.10;;;;;;;20.89;67.21;98824.09;2621644;54;20030;-69
2021/09/10 09:01:53;;;;;;;8.55;7.55;;;;;;;20.84;68.00;98820.56;2622927;39;20159;-69
2021/09/10 09:04:25;;;;;;;8.80;7.88;;;;;;;20.83;67.35;98829.69;2621780;54;20038;-69
2021/09/10 09:06:56;;;;;;;9.60;8.07;;;;;;;20.91;67.71;98823.84;2622357;54;20049;-69
2021/09/10 09:09:44;;;;;;;9.85;8.32;;;;;;;20.99;67.40;98823.34;2622601;54;20034;-69
2021/09/10 09:12:20;;;;;;;8.32;7.45;;;;;;;20.93;67.10;98816.31;2622604;47;20042;-69
2021/09/10 09:14:55;;;;;;;8.85;7.80;;;;;;;20.91;67.19;98819.28;2623969;54;20581;-69
2021/09/10 09:17:27;;;;;;;9.80;8.88;;;;;;;21.00;67.44;98822.28;2622420;54;20073;-69
2021/09/10 09:20:14;;;;;;;9.55;8.68;;;;;;;21.13;67.32;98821.81;2623491;39;20446;-69
2021/09/10 09:23:04;;;;;;;11.40;10.30;;;;;;;21.27;66.72;98817.59;2623022;54;20034;-69
2021/09/10 09:25:35;;;;;;;8.45;7.55;;;;;;;21.35;66.18;98819.00;2622709;54;20026;-69
2021/09/10 09:28:23;;;;;;;8.80;7.82;;;;;;;21.43;66.22;98812.28;2622588;54;20110;-69
2021/09/10 09:30:57;;;;;;;8.65;7.85;;;;;;;21.47;65.44;98811.53;2622881;54;20035;-69
2021/09/10 09:33:27;;;;;;;9.48;8.60;;;;;;;21.54;65.99;98813.16;2621975;54;20601;-69
2021/09/10 09:36:01;;;;;;;9.25;8.27;;;;;;;21.59;65.45;98799.72;2622872;54;20034;-69
2021/09/10 09:38:33;;;;;;;8.82;7.93;;;;;;;21.66;65.18;98814.53;2622287;54;20031;-69
2021/09/10 09:41:07;;;;;;;8.95;7.63;;;;;;;21.85;64.20;98800.59;2621904;54;20038;-69
2021/09/10 09:43:37;;;;;;;9.77;8.55;;;;;;;21.97;63.79;98803.84;2621016;54;20039;-70
2021/09/10 09:46:12;;;;;;;8.60;7.80;;;;;;;22.10;63.60;98806.00;2620846;54;20030;-70
2021/09/10 09:48:44;;;;;;;8.48;7.53;;;;;;;22.24;63.06;98807.13;2619478;54;20035;-70
2021/09/10 09:51:15;;;;;;;9.90;8.90;;;;;;;22.32;62.80;98802.28;2619840;39;20414;-71
2021/09/10 09:53:46;;;;;;;10.02;8.57;;;;;;;22.49;62.62;98803.66;2618617;47;20039;-69
2021/09/10 09:56:16;;;;;;;9.15;8.25;;;;;;;22.70;61.55;98803.63;2619219;54;20055;-70
2021/09/10 09:58:47;;;;;;;10.45;9.45;;;;;;;22.96;60.90;98796.31;2618722;46;20137;-70
2021/09/10 10:01:19;;;;;;;10.73;9.30;;;;;;;23.24;60.94;98801.09;2619327;54;20041;-70
2021/09/10 10:03:50;;;;;;;8.40;7.70;;;;;;;23.34;59.40;98792.13;2619571;54;20605;-70
2021/09/10 10:06:25;;;;;;;8.75;7.85;;;;;;;23.36;59.42;98790.00;2619222;39;20429;-71
2021/09/10 10:09:01;;;;;;;8.73;7.93;;;;;;;23.51;58.73;98796.38;2618914;39;20446;-71
2021/09/10 10:11:40;;;;;;;8.48;7.68;;;;;;;23.57;58.35;98796.09;2618885;47;20038;-71
2021/09/10 10:14:10;;;;;;;7.55;6.95;;;;;;;23.56;57.59;98785.59;2619308;54;20035;-71
2021/09/10 10:16:44;;;;;;;8.25;7.45;;;;;;;23.51;57.90;98781.00;2619696;54;20035;-72
2021/09/10 10:19:45;;;;;;;8.73;7.57;;;;;;;23.63;57.58;98788.75;2620634;47;20041;-72
2021/09/10 10:22:17;;;;;;;10.05;8.07;;;;;;;23.59;56.84;98791.22;2621656;54;20037;-71
2021/09/10 10:24:49;;;;;;;8.20;7.50;;;;;;;23.56;56.86;98783.69;2621319;54;20030;-70
2021/09/10 10:27:32;;;;;;;8.27;7.47;;;;;;;23.64;56.64;98782.31;2621149;54;20098;-71
2021/09/10 10:30:03;;;;;;;8.98;8.10;;;;;;;23.59;56.56;98782.31;2621930;39;20535;-71
2021/09/10 10:32:40;;;;;;;8.63;7.32;;;;;;;23.57;56.53;98781.78;2621639;54;20042;-71
2021/09/10 10:35:20;;;;;;;9.73;7.70;;;;;;;23.54;56.75;98785.84;2621155;54;20073;-71
2021/09/10 10:37:51;;;;;;;7.38;6.68;;;;;;;23.48;56.53;98789.66;2620944;54;20038;-71
2021/09/10 10:40:42;;;;;;;8.00;7.25;;;;;;;23.42;55.83;98796.16;2620717;54;20121;-71
2021/09/10 10:43:15;;;;;;;7.82;7.13;;;;;;;23.29;55.79;98796.75;2623183;39;20421;-71
2021/09/10 10:46:03;;;;;;;8.17;7.47;;;;;;;23.26;55.49;98797.31;2622551;39;20396;-71
2021/09/10 10:48:52;;;;;;;7.97;7.18;;;;;;;23.10;55.60;98793.84;2620965;54;20046;-71
2021/09/10 10:51:45;;;;;;;7.85;7.20;;;;;;;22.87;55.72;98796.03;2621110;54;20026;-71
2021/09/10 10:54:16;;;;;;;8.88;7.97;;;;;;;22.66;56.43;98789.88;2621469;54;20038;-71
2021/09/10 10:56:50;;;;;;;9.52;8.63;;;;;;;22.79;56.86;98783.13;2621946;54;20026;-71
2021/09/10 10:59:36;;;;;;;7.70;6.95;;;;;;;22.86;56.66;98775.56;2620680;54;20553;-71
2021/09/10 11:02:38;;;;;;;8.23;7.43;;;;;;;22.89;56.92;98783.09;2621861;54;20042;-71
2021/09/10 11:05:16;;;;;;;9.07;8.15;;;;;;;22.97;56.66;98769.06;2620689;47;20133;-71
2021/09/10 11:07:47;;;;;;;9.55;7.88;;;;;;;23.15;56.75;98767.69;2621518;54;20110;-71
2021/09/10 11:10:20;;;;;;;9.00;8.10;;;;;;;23.39;56.22;98764.34;2620702;54;20045;-71
2021/09/10 11:12:51;;;;;;;8.63;7.82;;;;;;;23.48;56.06;98765.38;2620552;54;20030;-71
2021/09/10 11:15:26;;;;;;;8.75;7.85;;;;;;;23.57;55.52;98761.00;2620071;54;20047;-71
2021/09/10 11:18:03;;;;;;;14.00;12.60;;;;;;;23.74;55.47;98766.06;2620673;54;20122;-70
2021/09/10 11:20:37;;;;;;;12.37;8.43;;;;;;;23.99;55.11;98762.38;2621040;54;20031;-70
2021/09/10 11:23:09;;;;;;;15.32;7.70;;;;;;;24.05;54.71;98765.88;2619946;47;20815;-69
2021/09/10 17:23:45;;;;;;;5.80;5.20;;;;;;;22.73;55.83;98768.03;2621742;46;20113;-64
2021/09/10 17:26:15;;;;;;;6.63;6.03;;;;;;;22.61;56.25;98773.72;2620741;54;20046;-63
2021/09/10 17:28:45;;;;;;;8.15;5.78;;;;;;;22.57;55.85;98769.13;2620410;54;20026;-64
2021/09/10 17:31:15;;;;;;;6.68;6.07;;;;;;;22.47;56.40;98767.28;2620566;54;20037;-64
2021/09/10 17:33:45;;;;;;;6.40;5.80;;;;;;;22.47;56.89;98769.97;2620646;54;20147;-64
2021/09/10 17:36:14;;;;;;;7.15;6.18;;;;;;;22.46;56.83;98779.13;2620825;54;20580;-64
2021/09/10 17:38:47;;;;;;;8.00;7.35;;;;;;;22.46;57.18;98788.03;2621373;54;20573;-64
2021/09/10 17:41:16;;;;;;;7.28;6.57;;;;;;;22.40;57.17;98785.59;2621038;54;20038;-65
2021/09/10 17:43:46;;;;;;;6.20;5.47;;;;;;;22.37;57.29;98786.13;2620343;47;20031;-64
2021/09/10 17:46:16;;;;;;;6.18;5.57;;;;;;;22.31;57.68;98787.22;2620595;54;20038;-65
2021/09/10 17:48:46;;;;;;;5.95;5.45;;;;;;;22.28;58.14;98790.44;2619262;51;20030;-65
2021/09/10 17:51:15;;;;;;;7.10;6.43;;;;;;;22.23;58.41;98802.81;2618404;54;20027;-65
2021/09/10 17:53:48;;;;;;;10.13;8.77;;;;;;;22.22;58.65;98797.72;2618521;47;20031;-65